Lucy, New Mexico
Current Conditions -  °F | °C
As of 11:35 PM on Thursday 30 Oct 2014 (Local Time) from K0E0 Reporting Station
Clear Clear  
Wind Chill: 30°   Ceiling: Unl
Heat Index: 34°   Visibility: 10mi
Dew Point: 20°   Wind: 5mph
Humidity: 57%   Direction: 320°NW
Pressure: 30.43"   Gusts: NA
Location:  34.4464°N, 106.01°W
Report Text: K0E0 310535Z AUTO 32004KT 10SM CLR 01/M07 A3043 RMK AO2 T00101066
Loading
Personal Weather Stations






























Interactive Weather Map
Tropical Storm Tracking
New forecast layout! Learn more

10-Day Weather Forecast

Advertisements
Track Severe Weather on mobile